METAR Data
IDs: Format: Raw Decoded Include TAF

Data at: 0350 UTC 24 Jun 2021

METAR for:KRZT (Chillicothe/Ross Cnt, OH, US)
Text:KRZT 240335Z AUTO 00000KT 10SM CLR 16/12 A3018 RMK AO2 PWINO
Temperature: 16.0°C ( 61°F)
Dewpoint: 12.0°C ( 54°F) [RH = 77%]
Pressure (altimeter):30.18 inches Hg (1022.1 mb)
Winds:calm
Visibility:10 or more sm (16+ km)
Ceiling:at least 12,000 feet AGL
Clouds:sky clear below 12,000 feet AGL
QC Flag:automated observation with no human augmentation